新千歳空港の過去48時間の天気

新千歳空港 (Sapporo/New Chitose)

現在時刻: 2/21 13:08 JST (2/21 04:08 UTC) 以下の時間は現地時間です。

過去48時間のMETAR気象情報
時間 風向 風速(m/s) 視程 気温(℃) 湿度(%) 気圧(hPa) 天気現象
21 12:30 3 10km以上 1 47 1031
21 12:00 3 10km以上 1 47 1031
21 11:30 3 10km以上 1 44 1031
21 11:00 3 10km以上 1 47 1032
21 10:30 4 10km以上 0 55 1032
21 10:00 3 10km以上 -2 74 1032
21 09:30 不定 1 10km以上 -3 74 1032
21 09:00 不定 1 10km以上 -4 100 1032
21 08:30 不定 1 10km以上 -6 100 1032
21 08:00 不定 1 10km以上 -7 100 1032
21 07:30 不定 1 10km以上 -9 100 1031
21 07:00 東北東 2 10km以上 -9 100 1031 もや
21 06:30 不定 1 8000m -9 100 1031 散在した霧 もや
21 06:00 南東 1 5000m -8 100 1030 散在した霧 もや
21 05:30 不定 1 8000m -8 100 1030
21 05:00 南東 1 8000m -8 100 1030
21 04:30 南南西 2 8000m -7 100 1030
21 04:00 南南西 2 8000m -7 100 1030
21 03:30 不定 1 10km以上 -8 100 1030
21 03:00 2 8000m -7 100 1030 散在した霧
21 02:30 不定 1 4000m -6 100 1030 散在した霧 もや
21 02:00 不定 1 6000m -6 100 1030 散在した霧
21 01:30 2 8000m -5 100 1029 散在した霧
21 01:00 不定 2 6000m -5 100 1029 散在した霧
21 00:30 西 2 6000m -4 100 1029 部分霧
21 00:00 南南西 2 5000m -3 100 1029 もや
20 23:30 東北東 2 5000m -3 100 1028 もや
20 23:00 静穏 0 4000m -3 100 1028 弱いしゅう雪
20 22:30 2 5000m -3 100 1029 弱いしゅう雪
20 22:00 東北東 2 5000m -3 100 1028 弱いしゅう雪
20 21:30 不定 1 6000m -3 100 1028 弱いしゅう雪
20 21:00 南東 3 6000m -3 100 1028 弱いしゅう雪
20 20:30 南東 3 5000m -3 100 1028 弱いしゅう雪
20 20:00 東南東 3 6000m -2 86 1028 弱いしゅう雪
20 19:30 南南東 3 10km以上 -2 80 1028 弱いしゅう雪
20 19:00 東南東 3 10km以上 -2 74 1028
20 18:30 南東 3 10km以上 -2 80 1028
20 18:00 南南東 2 10km以上 -2 80 1028
20 17:30 南東 2 10km以上 -2 80 1028
20 17:00 南東 2 10km以上 -1 74 1028
20 16:30 不定 1 10km以上 -1 69 1028
20 16:00 東北東 3 10km以上 -1 74 1028
20 15:30 北東 3 10km以上 -1 80 1028
20 15:00 北北東 4 10km以上 -1 80 1028
20 14:30 北北東 4 10km以上 0 74 1028 弱いしゅう雪
20 14:00 北東 2 10km以上 -1 80 1028 弱いしゅう雪
20 13:30 不定 1 5000m 0 74 1027 弱いしゅう雪
20 13:12 2 3100m -1 74 1027 弱いしゅう雪
20 13:05 北北東 2 4900m -1 80 1027 弱いしゅう雪
20 13:00 2 8000m 0 69 1027 弱いしゅう雪
20 12:30 北北東 3 10km以上 -1 69 1027 弱いしゅう雪
20 12:00 北北東 4 10km以上 0 69 1027 弱いしゅう雪
20 11:45 5 10km以上 0 69 1028 弱いしゅう雪
20 11:30 西北西 2 10km以上 1 55 1028
20 11:00 西北西 3 10km以上 1 51 1028
20 10:30 西 3 10km以上 1 51 1028
20 10:00 不定 2 10km以上 0 55 1028
20 09:30 西北西 2 10km以上 0 55 1027
20 09:00 2 10km以上 -1 64 1027
20 08:30 不定 1 10km以上 -3 80 1027
20 08:00 不定 1 10km以上 -5 86 1028
20 07:30 東南東 1 10km以上 -6 93 1027
20 07:00 不定 1 10km以上 -6 93 1027
20 06:30 不定 1 10km以上 -6 100 1026
20 06:00 不定 1 10km以上 -7 100 1026 弱いしゅう雪
20 05:30 北北東 2 10km以上 -6 93 1026 弱いしゅう雪
20 05:00 南南東 2 10km以上 -7 100 1026
20 04:30 南南西 2 10km以上 -6 93 1025
20 04:00 2 10km以上 -6 93 1025 弱いしゅう雪
20 03:30 不定 1 10km以上 -6 100 1025 弱いしゅう雪
20 03:00 1 10km以上 -6 100 1025
20 02:30 1 10km以上 -7 100 1025
20 02:00 東北東 1 10km以上 -7 100 1024
20 01:30 不定 1 10km以上 -7 93 1024 散在した霧
20 01:00 北北東 2 10km以上 -5 93 1024
20 00:30 不定 1 10km以上 -6 93 1024
20 00:00 不定 1 10km以上 -5 93 1024
19 23:30 東南東 2 10km以上 -4 86 1024
19 23:00 不定 1 10km以上 -5 93 1024
19 22:30 不定 1 10km以上 -4 86 1024
19 22:00 2 10km以上 -4 86 1024
19 21:30 南東 2 10km以上 -5 93 1023
19 21:00 南東 2 10km以上 -5 86 1023
19 20:30 不定 1 10km以上 -4 80 1023
19 20:00 不定 1 10km以上 -3 74 1023 弱いしゅう雪
19 19:30 西南西 3 10km以上 -2 69 1023
19 19:00 静穏 0 10km以上 -3 86 1023
19 18:30 不定 1 10km以上 -3 86 1023
19 18:00 西北西 2 10km以上 -2 86 1022
19 17:30 不定 1 10km以上 -2 86 1022
19 17:00 不定 1 10km以上 -2 86 1022 弱いしゅう雪
19 16:30 北北西 3 10km以上 -1 86 1021 弱いしゅう雪
19 16:00 北北西 4 10km以上 -1 86 1021
19 15:30 2 10km以上 0 86 1020
19 15:00 北北東 3 10km以上 0 86 1020 周辺でしゅう雨
19 14:30 2 6000m 0 93 1020 弱いしゅう雪
19 14:04 2 1400m 1 86 1020 弱いしゅう雪
19 13:46 北北東 2 3100m 0 86 1020 弱いしゅう雪
19 13:36 北北東 2 5000m -1 100 1020 弱いしゅう雪
19 13:30 北東 3 3000m -1 93 1020 弱いしゅう雪
19 13:13 北東 4 1400m -1 93 1019 弱いしゅう雪
RJCC 210330Z 36006KT 9999 FEW030 SCT050 BKN/// 01/M09 Q1031 RMK 1CU030 3CU050 A3045
RJCC 210300Z 01006KT 340V050 9999 FEW030 SCT050 BKN/// 01/M09 Q1031 RMK 1CU030 4CU050 A3046
RJCC 210230Z 36005KT 330V050 9999 FEW030 SCT050 01/M10 Q1031 RMK 1CU030 4CU050 A3047
RJCC 210200Z 35006KT 9999 FEW030 SCT050 01/M09 Q1032 RMK 1CU030 4CU050 A3048
RJCC 210130Z 35007KT 9999 FEW030 SCT050 00/M08 Q1032 RMK 1CU030 4CU050 A3047
RJCC 210100Z 35005KT 9999 FEW030 SCT050 M02/M06 Q1032 RMK 1CU030 4CU050 A3048
RJCC 210030Z VRB01KT 9999 FEW020 M03/M07 Q1032 RMK 1CU020 A3049
RJCC 210000Z VRB02KT 9999 FEW010 M04/M04 Q1032 RMK 1ST010 A3049
RJCC 202330Z VRB01KT 9999 FEW010 M06/M06 Q1032 RMK 1ST010 A3049
RJCC 202300Z VRB01KT 9999 FEW010 SCT050 M07/M07 Q1032 RMK 1ST010 3CU050 A3048
RJCC 202230Z VRB02KT 9999 FEW010 SCT050 M09/M09 Q1031 RMK 1ST010 3CU050 A3047
RJCC 202200Z 07003KT 010V110 9999 BR FEW010 SCT050 M09/M09 Q1031 RMK 1ST010 3CU050 A3046 5000SW
RJCC 202130Z VRB02KT 8000 BCFG BR FEW010 M09/M09 Q1031 RMK 1ST010 A3045 BR S-SW
RJCC 202100Z 13002KT 5000 BCFG BR FEW010 M08/M08 Q1030 RMK 1ST010 A3044
RJCC 202030Z VRB02KT 8000 FEW010 M08/M08 Q1030 RMK 1ST010 A3044
RJCC 202000Z 14002KT 8000 FEW010 SCT070 M08/M08 Q1030 RMK 1ST010 3AC070 A3044
RJCC 201930Z 20003KT 8000 FEW010 BKN070 M07/M07 Q1030 RMK 1ST010 7AC070 A3044
RJCC 201900Z 20003KT 8000 FEW010 BKN070 M07/M07 Q1030 RMK 1ST010 6AC070 A3043
RJCC 201830Z VRB01KT 9999 FEW010 BKN070 M08/M08 Q1030 RMK 1ST010 6AC070 A3043
RJCC 201800Z 35003KT 320V020 8000 BCFG FEW010 SCT070 M07/M07 Q1030 RMK 1ST010 4AC070 A3041
RJCC 201730Z VRB02KT 4000 R19R/P2000N R01R/0750VP2000D BCFG BR FEW015 SCT060 M06/M06 Q1030 RMK 1ST015 4CU060 A3042 9999E
RJCC 201700Z VRB02KT 6000 R19R/P2000N R01R/1600VP2000N BCFG FEW015 SCT060 M06/M06 Q1030 RMK 1ST015 3CU060 A3041
RJCC 201630Z 36003KT 320V020 8000 BCFG FEW015 BKN060 M05/M05 Q1029 RMK 1ST015 5CU060 A3041
RJCC 201600Z VRB03KT 6000 R19R/P2000N R01R/P2000N BCFG FEW003 BKN050 M05/M05 Q1029 RMK 1ST003 5CU050 A3040 1000W
RJCC 201530Z 26003KT 240V330 6000 R19R/P2000N R01R/P2000N PRFG FEW003 BKN050 M04/M04 Q1029
RJCC 201500Z 20003KT 160V230 5000 BR FEW003 BKN050 M03/M03 Q1029 RMK 1ST003 6CU050 A3039
RJCC 201430Z 06003KT 030V100 5000 BR FEW003 BKN050 M03/M03 Q1028 RMK 1ST003 7CU050 A3038
RJCC 201400Z 00000KT 4000 -SHSN FEW003 SCT004 BKN050 M03/M03 Q1028 RMK 1ST003 4ST004 7CU050 A3038
RJCC 201330Z 08003KT 040V110 5000 -SHSN FEW003 BKN004 M03/M03 Q1029 RMK 1ST003 7ST004 A3039
RJCC 201300Z 07003KT 5000 -SHSN FEW003 BKN004 BKN050 M03/M03 Q1028 RMK 1ST003 5ST004 7CU050 A3038
RJCC 201230Z VRB02KT 6000 -SHSN FEW003 BKN004 BKN060 M03/M03 Q1028 RMK 1ST003 5ST004 7CU060 A3038
RJCC 201200Z 14005KT 6000 -SHSN FEW005 BKN070 M03/M03 Q1028 RMK 1ST005 7AC070 A3037
RJCC 201130Z 14006KT 5000 -SHSN FEW005 SCT007 BKN070 M03/M03 Q1028 RMK 1ST005 3ST007 7AC070 A3037
RJCC 201100Z 12005KT 6000 -SHSN FEW010 BKN060 M02/M04 Q1028 RMK 1ST010 6CU060 A3037
RJCC 201030Z 15005KT 9999 -SHSN FEW015 BKN040 BKN070 M02/M05 Q1028 RMK 1ST015 5CU040 6AC070 A3037 4000S-SW
RJCC 201000Z 12005KT 090V150 9999 FEW020 BKN040 BKN070 M02/M06 Q1028 RMK 1CU020 5CU040 6AC070 A3037
RJCC 200930Z 14006KT 100V260 9999 FEW020 BKN060 M02/M05 Q1028 RMK 1CU020 5CU060 A3037
RJCC 200900Z 15003KT 120V180 9999 FEW020 BKN080 M02/M05 Q1028 RMK 1CU020 5AC080 A3037
RJCC 200830Z 14004KT 9999 FEW020 BKN060 M02/M05 Q1028 RMK 1CU020 6CU060 A3037
RJCC 200800Z 13003KT 9999 FEW020 BKN060 M01/M05 Q1028 RMK 1CU020 6CU060 A3036
RJCC 200730Z VRB02KT 9999 FEW025 SCT060 M01/M06 Q1028 RMK 1CU025 4CU060 A3036
RJCC 200700Z 06005KT 9999 FEW025 BKN060 M01/M05 Q1028 RMK 1CU025 5CU060 A3036
RJCC 200630Z 04005KT 9999 FEW025 BKN060 M01/M04 Q1028 RMK 1CU025 5CU060 A3036
RJCC 200600Z 03008KT 9999 FEW025 BKN060 M01/M04 Q1028 RMK 1CU025 6CU060 A3036
RJCC 200530Z 02008KT 9999 -SHSN FEW010 SCT030 BKN050 00/M04 Q1028 RMK 1ST010 3CU030 7CU050 A3036
RJCC 200500Z 05003KT 350V070 9999 -SHSN FEW010 SCT025 BKN040 M01/M04 Q1028 RMK 1ST010 3CU025 7CU040 A3036
RJCC 200430Z VRB02KT 5000 R01L/2000N R01R/P2000N -SHSN FEW010 BKN020 BKN040 M00/M04 Q1027
RJCC 200412Z 35003KT 290V040 3100 R01L/P2000N R01R/P2000N -SHSN FEW010 BKN020 M01/M05 Q1027 RMK 1ST010 7ST020 A3034 8000E
RJCC 200405Z 02004KT 320V060 4900 -SHSN FEW015 BKN030 M01/M04 Q1027 RMK 1ST015 7CU030 A3035
RJCC 200400Z 01004KT 340V060 8000 -SHSN FEW015 BKN030 M00/M05 Q1027 RMK 1ST015 7CU030 A3035 3000W
RJCC 200330Z 03005KT 9999 -SHSN FEW015 BKN030 M01/M06 Q1027 RMK 1ST015 6CU030 A3034
RJCC 200300Z 02008KT 9999 -SHSN FEW020 BKN040 M00/M05 Q1027 RMK 1CU020 7CU040 A3035
RJCC 200245Z 01010KT 9999 -SHSN FEW020 BKN040 00/M05 Q1028 RMK 1CU020 6CU040 A3036
RJCC 200230Z 29004KT 230V350 9999 FEW020 BKN040 01/M07 Q1028 RMK 1CU020 6CU040 A3036
RJCC 200200Z 30005KT 220V360 9999 FEW020 BKN040 01/M08 Q1028 RMK 1CU020 6CU040 A3036
RJCC 200130Z 26005G17KT 140V300 9999 FEW020 BKN040 01/M08 Q1028 RMK 1CU020 6CU040 A3036
RJCC 200100Z VRB03KT 9999 FEW020 SCT040 00/M08 Q1028 RMK 1CU020 3CU040 A3036
RJCC 200030Z 29003KT 210V330 9999 FEW020 00/M08 Q1027 RMK 1CU020 A3035
RJCC 200000Z 19004KT 150V220 9999 FEW020 SCT040 M01/M07 Q1027 RMK 1CU020 3CU040 A3035
RJCC 192330Z VRB02KT 9999 FEW030 SCT050 M03/M06 Q1027 RMK 1CU030 3CU050 A3035
RJCC 192300Z VRB02KT 9999 FEW030 SCT045 M05/M07 Q1028 RMK 1CU030 3CU045 A3036
RJCC 192230Z 11002KT 9999 FEW030 SCT045 M06/M07 Q1027 RMK 1CU030 3CU045 A3034
RJCC 192200Z VRB02KT 9999 FEW030 BKN050 M06/M07 Q1027 RMK 1CU030 5CU050 A3033
RJCC 192130Z VRB02KT 9999 FEW030 BKN040 BKN050 M06/M06 Q1026 RMK 1CU030 5CU040 6CU050 A3032
RJCC 192100Z VRB02KT 9999 -SHSN FEW020 SCT035 BKN050 M07/M07 Q1026 RMK 1CU020 3CU035 6CU050 A3031
RJCC 192030Z 03003KT 9999 -SHSN FEW020 SCT045 BKN060 M06/M07 Q1026 RMK 1CU020 3CU045 7CU060 A3031
RJCC 192000Z 15003KT 090V190 9999 FEW020 BKN050 M07/M07 Q1026 RMK 1CU020 7CU050 A3030
RJCC 191930Z 20003KT 150V230 9999 FEW020 SCT050 BKN060 M06/M07 Q1025 RMK 1CU020 3CU050 7CU060 A3029
RJCC 191900Z 17004KT 9999 -SHSN FEW020 SCT045 BKN060 M06/M07 Q1025 RMK 1CU020 3CU045 7CU060 A3027
RJCC 191830Z VRB01KT 9999 -SHSN FEW020 BKN050 M06/M06 Q1025 RMK 1CU020 7CU050 A3027
RJCC 191800Z 19002KT 9999 FEW020 BKN060 M06/M06 Q1025 RMK 1CU020 7CU060 A3027
RJCC 191730Z 10002KT 9999 FEW020 BKN060 M07/M07 Q1025 RMK 1CU020 7CU060 A3027
RJCC 191700Z 07001KT 9999 FEW020 BKN060 M07/M07 Q1024 RMK 1CU020 5CU060 A3026
RJCC 191630Z VRB02KT 9999 R19R/P2000N R19L/P2000N BCFG FEW020 SCT070 M07/M08 Q1024
RJCC 191600Z 03003KT 9999 FEW020 BKN070 M05/M06 Q1024 RMK 1CU020 7AC070 A3026
RJCC 191530Z VRB01KT 9999 FEW020 BKN070 M06/M07 Q1024 RMK 1CU020 7AC070 A3025
RJCC 191500Z VRB02KT 9999 FEW020 BKN060 M05/M06 Q1024 RMK 1CU020 6CU060 A3025
RJCC 191430Z 11004KT 9999 FEW020 BKN060 M04/M06 Q1024 RMK 1CU020 7CU060 A3024
RJCC 191400Z VRB02KT 9999 FEW020 BKN060 M05/M06 Q1024 RMK 1CU020 7CU060 A3024
RJCC 191330Z VRB01KT 9999 FEW020 SCT045 BKN060 M04/M06 Q1024 RMK 1CU020 3CU045 6CU060 A3024
RJCC 191300Z 18004KT 150V210 9999 FEW020 SCT050 BKN060 M04/M06 Q1024 RMK 1CU020 3CU050 6CU060 A3024
RJCC 191230Z 13003KT 120V190 9999 FEW020 BKN060 M05/M06 Q1023 RMK 1CU020 6CU060 A3023
RJCC 191200Z 14003KT 120V210 9999 FEW020 BKN060 M05/M07 Q1023 RMK 1CU020 5CU060 A3023
RJCC 191130Z VRB02KT 9999 FEW020 SCT060 M04/M07 Q1023 RMK 1CU020 4CU060 A3023
RJCC 191100Z VRB02KT 9999 -SHSN FEW020 BKN060 M03/M07 Q1023 RMK 1CU020 5CU060 A3022
RJCC 191030Z 25005KT 9999 FEW020 BKN060 M02/M07 Q1023 RMK 1CU020 6CU060 A3022
RJCC 191000Z 00000KT 9999 FEW010 M03/M05 Q1023 RMK 1ST010 A3022
RJCC 190930Z VRB02KT 9999 FEW010 M03/M05 Q1023 RMK 1ST010 A3021
RJCC 190900Z 29003KT 240V030 9999 FEW010 M02/M04 Q1022 RMK 1ST010 A3020
RJCC 190830Z VRB02KT 9999 FEW010 SCT060 M02/M04 Q1022 RMK 1ST010 3CU060 A3019
RJCC 190800Z VRB01KT 9999 -SHSN FEW008 BKN060 M02/M04 Q1022 RMK 1ST008 5CU060 A3018
RJCC 190730Z 33005KT 290V360 9999 -SHSN FEW008 SCT030 BKN060 M01/M03 Q1021 RMK 1ST008 3CU030 6CU060 A3017
RJCC 190700Z 34007KT 9999 FEW010 SCT050 M01/M03 Q1021 RMK 1ST010 4CU050 A3016
RJCC 190630Z 36004KT 9999 FEW008 SCT050 M00/M02 Q1020 RMK 1ST008 4CU050 A3015
RJCC 190600Z 02005KT 9999 VCSH FEW008 SCT050 M00/M02 Q1020 RMK 1ST008 3CU050 A3013 SH E
RJCC 190530Z 01004KT 6000 -SHSN FEW006 SCT008 BKN050 00/M01 Q1020 RMK 1ST006 3ST008 5CU050 A3013
RJCC 190504Z 01004KT 1400 R01L/P2000N R01R/P2000N -SHSN FEW007 BKN010 BKN040 01/M01 Q1020 RMK 1ST007 5ST010 6CU040 A3013
RJCC 190446Z 03004KT 3100 -SHSN FEW007 BKN020 M00/M02 Q1020 RMK 1ST007 6CU020 A3012 8000NE-E
RJCC 190436Z 03004KT 5000 -SHSN FEW007 BKN040 M01/M01 Q1020 RMK 1ST007 6CU040 A3012
RJCC 190430Z 04005KT 3000 R01L/P2000N R01R/P2000N -SHSN FEW007 BKN040 M01/M02 Q1020 RMK 1ST007 6CU040 A3012
RJCC 190413Z 04007KT 1400 R01L/P2000N R01R/P2000N -SHSN FEW010 BKN015 M01/M02 Q1019 RMK 1ST010 7ST015 A3011